createdAt,value
2017-08-30T00:02:13.211Z,51.17
2017-08-30T00:04:42.188Z,49.77
2017-08-30T00:07:11.182Z,47.70
2017-08-30T00:09:40.180Z,49.30
2017-08-30T00:12:09.147Z,49.77
2017-08-30T00:14:38.140Z,46.70
2017-08-30T00:17:07.114Z,49.40
2017-08-30T00:19:36.097Z,48.57
2017-08-30T00:22:05.055Z,50.77
2017-08-30T00:24:45.836Z,50.30
2017-08-30T00:27:14.845Z,49.07
2017-08-30T00:29:43.833Z,50.63
2017-08-30T00:32:12.797Z,52.03
2017-08-30T00:34:41.804Z,51.43
2017-08-30T00:37:10.795Z,47.90
2017-08-30T00:39:39.765Z,50.97
2017-08-30T00:42:08.723Z,51.50
2017-08-30T00:44:37.700Z,48.73
2017-08-30T00:47:06.677Z,52.33
2017-08-30T00:49:35.651Z,55.77
2017-08-30T00:52:04.615Z,53.57
2017-08-30T00:54:33.583Z,54.17
2017-08-30T00:57:02.565Z,53.90
2017-08-30T00:59:31.844Z,52.87
2017-08-30T01:02:00.831Z,53.10
2017-08-30T01:04:29.799Z,54.57
2017-08-30T01:06:58.821Z,55.07
2017-08-30T01:09:27.819Z,55.97
2017-08-30T01:11:56.792Z,51.50
2017-08-30T01:14:26.554Z,55.57
2017-08-30T01:16:55.601Z,55.67
2017-08-30T01:19:24.574Z,54.97
2017-08-30T01:21:53.553Z,56.17
2017-08-30T01:24:22.532Z,53.97
2017-08-30T01:26:51.500Z,54.53
2017-08-30T01:29:20.477Z,52.13
2017-08-30T01:31:49.560Z,51.77
2017-08-30T01:34:18.671Z,53.23
2017-08-30T01:36:47.658Z,51.90
2017-08-30T01:39:16.619Z,51.30
2017-08-30T01:41:45.608Z,55.90
2017-08-30T01:44:14.702Z,53.17
2017-08-30T01:46:43.680Z,52.87
2017-08-30T01:49:12.644Z,50.20
2017-08-30T01:51:41.639Z,52.40
2017-08-30T01:54:10.609Z,52.50
2017-08-30T01:56:39.602Z,51.30
2017-08-30T01:59:08.557Z,49.90
2017-08-30T02:01:37.521Z,46.83
2017-08-30T02:04:06.501Z,51.10
2017-08-30T02:06:35.498Z,50.70
2017-08-30T02:09:04.455Z,49.40
2017-08-30T02:11:33.461Z,51.10
2017-08-30T02:14:02.489Z,48.77
2017-08-30T02:16:31.518Z,48.70
2017-08-30T02:19:01.269Z,49.83
2017-08-30T02:21:30.243Z,52.80
2017-08-30T02:23:59.243Z,51.00
2017-08-30T02:26:28.215Z,49.77
2017-08-30T02:28:57.184Z,50.17
2017-08-30T02:31:26.150Z,47.97
2017-08-30T02:33:55.135Z,47.67
2017-08-30T02:36:24.084Z,47.17
2017-08-30T02:38:53.081Z,46.20
2017-08-30T02:41:22.042Z,50.60
2017-08-30T02:43:51.136Z,47.60
2017-08-30T02:46:20.103Z,46.80
2017-08-30T02:48:49.150Z,48.20
2017-08-30T02:51:18.096Z,46.07
2017-08-30T02:53:47.104Z,45.37
2017-08-30T02:56:16.278Z,45.30
2017-08-30T02:58:45.283Z,45.90
2017-08-30T03:01:14.231Z,42.93
2017-08-30T03:03:43.292Z,45.30
2017-08-30T03:06:12.265Z,44.00
2017-08-30T03:08:41.224Z,43.47
2017-08-30T03:11:14.812Z,43.57
2017-08-30T03:13:43.757Z,41.80
2017-08-30T03:16:12.739Z,43.53
2017-08-30T03:18:41.700Z,39.57
2017-08-30T03:21:10.690Z,43.20
2017-08-30T03:23:39.675Z,40.03
2017-08-30T03:26:08.667Z,36.60
2017-08-30T03:28:37.625Z,40.10
2017-08-30T03:31:06.599Z,36.67
2017-08-30T03:33:35.575Z,34.73
2017-08-30T03:36:04.566Z,35.17
2017-08-30T03:38:33.531Z,34.87
2017-08-30T03:41:02.497Z,35.50
2017-08-30T03:43:31.509Z,35.57
2017-08-30T03:46:00.543Z,34.57
2017-08-30T03:48:29.508Z,30.77
2017-08-30T03:50:58.473Z,28.30
2017-08-30T03:53:27.466Z,26.30
2017-08-30T03:55:56.433Z,26.07
2017-08-30T03:58:25.408Z,25.43
2017-08-30T04:00:54.418Z,26.53
2017-08-30T04:03:23.394Z,24.00
2017-08-30T04:05:52.440Z,24.60
2017-08-30T04:08:21.429Z,23.80
2017-08-30T04:10:50.385Z,23.63
2017-08-30T04:13:19.401Z,23.37
2017-08-30T04:15:48.400Z,24.23
2017-08-30T04:18:17.361Z,22.30
2017-08-30T04:20:46.323Z,23.30
2017-08-30T04:23:15.313Z,23.57
2017-08-30T04:25:44.296Z,23.20
2017-08-30T04:28:13.290Z,23.60
2017-08-30T04:30:42.247Z,22.90
2017-08-30T04:33:11.225Z,23.60
2017-08-30T04:35:40.238Z,23.50
2017-08-30T04:38:09.252Z,24.80
2017-08-30T04:40:38.368Z,25.37
2017-08-30T04:43:07.339Z,25.50
2017-08-30T04:45:37.292Z,26.43
2017-08-30T04:48:06.533Z,25.43
2017-08-30T04:50:35.820Z,27.70
2017-08-30T04:53:04.808Z,25.40
2017-08-30T04:55:33.760Z,26.10
2017-08-30T04:58:02.755Z,27.37
2017-08-30T05:00:31.741Z,26.97
2017-08-30T05:03:00.700Z,27.60
2017-08-30T05:05:29.669Z,27.50
2017-08-30T05:07:58.669Z,27.50
2017-08-30T05:10:27.635Z,28.00
2017-08-30T05:12:56.628Z,29.90
2017-08-30T05:15:25.620Z,29.90
2017-08-30T05:17:54.605Z,30.30
2017-08-30T05:20:23.569Z,29.47
2017-08-30T05:22:52.595Z,28.87
2017-08-30T05:25:21.629Z,29.40
2017-08-30T05:27:50.694Z,29.20
2017-08-30T05:30:19.669Z,29.20
2017-08-30T05:32:48.662Z,29.97
2017-08-30T05:35:17.609Z,29.57
2017-08-30T05:37:46.655Z,28.97
2017-08-30T05:40:15.611Z,29.43
2017-08-30T05:42:44.606Z,30.80
2017-08-30T05:45:13.601Z,30.60
2017-08-30T05:47:42.614Z,29.80
2017-08-30T05:50:11.575Z,29.70
2017-08-30T05:52:40.560Z,29.83
2017-08-30T05:55:09.529Z,31.50
2017-08-30T05:57:38.628Z,29.47
2017-08-30T06:00:07.598Z,30.70
2017-08-30T06:02:36.575Z,32.42
2017-08-30T06:05:05.550Z,32.60
2017-08-30T06:07:34.661Z,36.60
2017-08-30T06:10:03.758Z,31.37
2017-08-30T06:12:32.754Z,32.23
2017-08-30T06:15:01.723Z,32.03
2017-08-30T06:17:30.676Z,31.33
2017-08-30T06:19:59.730Z,30.00
2017-08-30T06:22:28.731Z,30.50
2017-08-30T06:24:57.684Z,29.93
2017-08-30T06:27:26.745Z,28.20
2017-08-30T06:29:56.544Z,29.00
2017-08-30T06:32:25.579Z,30.63
2017-08-30T06:34:55.470Z,30.73
2017-08-30T06:37:24.439Z,31.10
2017-08-30T06:39:53.415Z,29.23
2017-08-30T06:42:23.167Z,27.00
2017-08-30T06:44:52.176Z,27.67
2017-08-30T06:47:21.125Z,27.63
2017-08-30T06:49:50.104Z,27.37
2017-08-30T06:52:19.097Z,27.20
2017-08-30T06:54:48.074Z,28.73
2017-08-30T06:57:17.030Z,28.20
2017-08-30T06:59:46.017Z,27.80
2017-08-30T07:02:14.973Z,27.50
2017-08-30T07:04:43.969Z,26.90
2017-08-30T07:07:12.941Z,28.30
2017-08-30T07:09:41.929Z,28.23
2017-08-30T07:12:10.915Z,29.10
2017-08-30T07:14:39.898Z,31.13
2017-08-30T07:17:08.841Z,27.13
2017-08-30T07:19:37.822Z,28.30
2017-08-30T07:22:06.789Z,26.63
2017-08-30T07:24:36.534Z,27.50
2017-08-30T07:27:05.494Z,28.90
2017-08-30T07:29:34.494Z,27.30
2017-08-30T07:32:03.471Z,27.03
2017-08-30T07:34:32.455Z,28.70
2017-08-30T07:37:02.205Z,28.00
2017-08-30T07:39:31.226Z,28.67
2017-08-30T07:42:00.240Z,26.90
2017-08-30T07:44:29.207Z,26.93
2017-08-30T07:46:58.188Z,27.50
2017-08-30T07:49:27.761Z,28.53
2017-08-30T07:51:56.844Z,26.63
2017-08-30T07:54:25.839Z,30.30
2017-08-30T07:56:54.806Z,26.93
2017-08-30T07:59:23.824Z,26.70
2017-08-30T08:01:53.771Z,25.87
2017-08-30T08:04:22.736Z,26.60
2017-08-30T08:06:52.470Z,27.20
2017-08-30T08:09:21.464Z,25.90
2017-08-30T08:11:50.421Z,30.17
2017-08-30T08:14:19.416Z,27.87
2017-08-30T08:16:48.394Z,27.80
2017-08-30T08:19:17.388Z,28.10
2017-08-30T08:21:46.350Z,28.20
2017-08-30T08:24:15.328Z,26.97
2017-08-30T08:26:44.380Z,28.90
2017-08-30T08:29:13.366Z,28.10
2017-08-30T08:31:42.337Z,26.70
2017-08-30T08:34:11.354Z,26.27
2017-08-30T08:36:40.349Z,27.83
2017-08-30T08:39:09.312Z,25.57
2017-08-30T08:41:38.320Z,28.60
2017-08-30T08:44:07.321Z,29.43
2017-08-30T08:46:36.266Z,27.70
2017-08-30T08:49:05.259Z,27.70
2017-08-30T08:51:34.226Z,27.87
2017-08-30T08:54:03.253Z,27.03
2017-08-30T08:56:32.217Z,25.80
2017-08-30T08:59:01.205Z,26.53
2017-08-30T09:01:30.272Z,25.30
2017-08-30T09:03:59.227Z,25.03
2017-08-30T09:06:28.204Z,26.40
2017-08-30T09:08:57.191Z,25.73
2017-08-30T09:11:26.155Z,25.10
2017-08-30T09:13:55.137Z,24.67
2017-08-30T09:16:24.101Z,26.10
2017-08-30T09:18:53.077Z,25.10
2017-08-30T09:21:22.056Z,23.77
2017-08-30T09:23:51.024Z,26.17
2017-08-30T09:26:20.492Z,25.53
2017-08-30T09:28:49.492Z,25.13
2017-08-30T09:31:18.460Z,26.20
2017-08-30T09:33:47.436Z,26.87
2017-08-30T09:36:16.420Z,25.60
2017-08-30T09:38:45.383Z,25.13
2017-08-30T09:41:14.368Z,26.43
2017-08-30T09:43:43.353Z,25.50
2017-08-30T09:46:12.342Z,25.10
2017-08-30T09:48:41.304Z,24.50
2017-08-30T09:51:10.355Z,25.97
2017-08-30T09:53:39.476Z,27.23
2017-08-30T09:56:08.470Z,27.30
2017-08-30T09:58:37.459Z,26.83
2017-08-30T10:01:06.450Z,28.80
2017-08-30T10:03:36.312Z,28.33
2017-08-30T10:06:05.304Z,27.37
2017-08-30T10:08:34.292Z,27.47
2017-08-30T10:11:03.299Z,29.10
2017-08-30T10:13:32.259Z,28.57
2017-08-30T10:16:01.235Z,30.40
2017-08-30T10:18:30.220Z,31.33
2017-08-30T10:20:59.270Z,31.10
2017-08-30T10:23:28.233Z,30.53
2017-08-30T10:25:57.340Z,30.70
2017-08-30T10:28:26.314Z,31.40
2017-08-30T10:30:55.304Z,31.57
2017-08-30T10:33:24.277Z,33.00
2017-08-30T10:35:53.254Z,30.40
2017-08-30T10:38:22.222Z,32.87
2017-08-30T10:40:51.208Z,30.97
2017-08-30T10:43:20.178Z,32.53
2017-08-30T10:45:49.180Z,33.50
2017-08-30T10:48:19.136Z,29.10
2017-08-30T10:50:48.130Z,33.57
2017-08-30T10:53:17.133Z,32.80
2017-08-30T10:55:46.153Z,34.07
2017-08-30T10:58:15.108Z,32.70
2017-08-30T11:00:44.276Z,34.37
2017-08-30T11:03:13.353Z,33.27
2017-08-30T11:05:42.561Z,34.87
2017-08-30T11:08:11.686Z,36.23
2017-08-30T11:10:40.938Z,36.80
2017-08-30T11:13:09.921Z,37.23
2017-08-30T11:15:38.908Z,35.27
2017-08-30T11:18:07.904Z,39.00
2017-08-30T11:20:37.474Z,38.33
2017-08-30T11:23:06.451Z,37.87
2017-08-30T11:25:36.257Z,37.20
2017-08-30T11:28:05.234Z,37.73
2017-08-30T11:30:34.222Z,38.00
2017-08-30T11:33:03.205Z,37.67
2017-08-30T11:35:32.212Z,34.27
2017-08-30T11:38:02.391Z,35.00
2017-08-30T11:40:32.371Z,32.60
2017-08-30T11:43:01.515Z,32.70
2017-08-30T11:45:30.543Z,31.73
2017-08-30T11:47:59.545Z,33.77
2017-08-30T11:50:28.621Z,33.57
2017-08-30T11:52:57.661Z,34.43
2017-08-30T11:55:26.764Z,32.00
2017-08-30T11:57:56.061Z,33.33
2017-08-30T12:00:25.033Z,32.63
2017-08-30T12:02:54.058Z,33.50
2017-08-30T12:05:23.277Z,34.63
2017-08-30T12:07:52.241Z,36.90
2017-08-30T12:10:21.295Z,34.90
2017-08-30T12:12:50.322Z,34.73
2017-08-30T12:15:19.338Z,36.13
2017-08-30T12:17:48.360Z,35.23
2017-08-30T12:20:17.350Z,35.30
2017-08-30T12:22:46.329Z,35.93
2017-08-30T12:25:15.420Z,34.37
2017-08-30T12:27:44.503Z,36.03
2017-08-30T12:30:13.590Z,35.20
2017-08-30T12:32:42.580Z,36.47
2017-08-30T12:35:12.077Z,34.73
2017-08-30T12:37:46.786Z,33.43
2017-08-30T12:40:15.780Z,32.13
2017-08-30T12:42:44.776Z,31.57
2017-08-30T12:45:13.758Z,30.73
2017-08-30T12:47:42.747Z,30.60
2017-08-30T12:50:11.750Z,30.77
2017-08-30T12:52:40.757Z,32.07
2017-08-30T12:55:09.736Z,31.83
2017-08-30T12:57:38.736Z,31.20
2017-08-30T13:00:07.720Z,30.43
2017-08-30T13:02:36.717Z,30.50
2017-08-30T13:05:05.685Z,30.97
2017-08-30T13:07:34.685Z,32.23
2017-08-30T13:10:03.673Z,29.33
2017-08-30T13:12:32.649Z,30.57
2017-08-30T13:15:01.653Z,29.60
2017-08-30T13:17:30.617Z,31.23
2017-08-30T13:19:59.617Z,30.83
2017-08-30T13:22:28.614Z,31.27
2017-08-30T13:24:57.617Z,27.97
2017-08-30T13:27:26.601Z,29.87
2017-08-30T13:29:55.690Z,29.97
2017-08-30T13:32:25.419Z,27.77
2017-08-30T13:34:54.419Z,27.83
2017-08-30T13:37:23.382Z,31.67
2017-08-30T13:39:53.201Z,30.57
2017-08-30T13:42:22.222Z,32.37
2017-08-30T13:44:51.203Z,31.40
2017-08-30T13:47:20.163Z,30.97
2017-08-30T13:49:49.203Z,28.37
2017-08-30T13:52:18.179Z,30.07
2017-08-30T13:54:47.165Z,30.17
2017-08-30T13:57:16.154Z,31.30
2017-08-30T13:59:45.139Z,29.10
2017-08-30T14:02:14.100Z,32.13
2017-08-30T14:04:43.081Z,31.30
2017-08-30T14:07:12.110Z,32.20
2017-08-30T14:09:41.086Z,30.37
2017-08-30T14:12:10.118Z,31.67
2017-08-30T14:14:39.124Z,31.90
2017-08-30T14:17:08.094Z,32.60
2017-08-30T14:19:37.173Z,32.90
2017-08-30T14:22:06.138Z,31.40
2017-08-30T14:24:35.125Z,31.83
2017-08-30T14:27:04.154Z,31.27
2017-08-30T14:29:33.128Z,34.90
2017-08-30T14:32:03.125Z,31.50
2017-08-30T14:34:32.096Z,35.93
2017-08-30T14:37:01.094Z,33.43
2017-08-30T14:39:30.109Z,33.80
2017-08-30T14:41:59.101Z,32.40
2017-08-30T14:44:28.150Z,33.60
2017-08-30T14:46:57.177Z,34.00
2017-08-30T14:49:26.186Z,33.63
2017-08-30T14:51:55.169Z,33.77
2017-08-30T14:54:24.222Z,33.53
2017-08-30T14:56:53.372Z,34.73
2017-08-30T14:59:22.361Z,33.40
2017-08-30T15:01:51.323Z,34.17
2017-08-30T15:04:20.350Z,37.10
2017-08-30T15:06:49.357Z,35.43
2017-08-30T15:09:18.540Z,35.40
2017-08-30T15:11:47.578Z,35.80
2017-08-30T15:14:16.566Z,31.00
2017-08-30T15:16:46.453Z,33.07
2017-08-30T15:19:16.209Z,33.87
2017-08-30T15:21:45.205Z,37.57
2017-08-30T15:24:14.199Z,35.63
2017-08-30T15:26:43.170Z,35.10
2017-08-30T15:29:12.177Z,36.10
2017-08-30T15:31:41.170Z,34.80
2017-08-30T15:34:10.225Z,35.00
2017-08-30T15:36:39.248Z,35.37
2017-08-30T15:39:08.256Z,35.50
2017-08-30T15:41:37.267Z,35.60
2017-08-30T15:44:06.259Z,36.80
2017-08-30T15:46:35.282Z,35.90
2017-08-30T15:49:04.311Z,36.40
2017-08-30T15:51:33.290Z,35.50
2017-08-30T15:54:02.270Z,32.10
2017-08-30T15:56:31.971Z,34.90
2017-08-30T15:59:02.706Z,35.20
2017-08-30T16:01:32.253Z,33.47
2017-08-30T16:04:01.277Z,36.23
2017-08-30T16:06:31.150Z,36.50
2017-08-30T16:09:00.143Z,34.30
2017-08-30T16:11:29.205Z,33.13
2017-08-30T16:13:58.250Z,35.27
2017-08-30T16:16:27.261Z,36.90
2017-08-30T16:18:56.339Z,35.67
2017-08-30T16:21:25.477Z,35.47
2017-08-30T16:23:55.386Z,33.60
2017-08-30T16:26:24.369Z,35.73
2017-08-30T16:28:53.937Z,33.20
2017-08-30T16:31:23.085Z,32.03
2017-08-30T16:33:52.050Z,33.00
2017-08-30T16:36:21.791Z,32.07
2017-08-30T16:38:50.810Z,31.67
2017-08-30T16:41:20.862Z,30.07
2017-08-30T16:43:49.887Z,30.30
2017-08-30T16:46:18.897Z,31.60
2017-08-30T16:48:47.862Z,30.73
2017-08-30T16:51:16.857Z,31.50
2017-08-30T16:53:47.095Z,29.87
2017-08-30T16:56:16.797Z,29.17
2017-08-30T16:58:46.097Z,29.77
2017-08-30T17:01:15.082Z,29.83
2017-08-30T17:03:44.129Z,29.93
2017-08-30T17:06:13.170Z,30.73
2017-08-30T17:08:42.197Z,31.37
2017-08-30T17:11:12.426Z,29.90
2017-08-30T17:13:41.424Z,30.53
2017-08-30T17:16:10.433Z,29.63
2017-08-30T17:18:39.410Z,29.83
2017-08-30T17:21:08.368Z,31.87
2017-08-30T17:23:37.357Z,31.23
2017-08-30T17:26:06.316Z,30.73
2017-08-30T17:28:35.382Z,31.13
2017-08-30T17:31:04.352Z,30.37
2017-08-30T17:33:33.325Z,33.20
2017-08-30T17:36:02.290Z,30.77
2017-08-30T17:38:31.287Z,30.73
2017-08-30T17:41:00.263Z,30.60
2017-08-30T17:43:29.224Z,32.57
2017-08-30T17:45:58.207Z,32.50
2017-08-30T17:48:27.202Z,32.67
2017-08-30T17:50:56.178Z,30.73
2017-08-30T17:53:25.137Z,30.97
2017-08-30T17:55:54.132Z,31.93
2017-08-30T17:58:23.198Z,30.87
2017-08-30T18:00:52.171Z,32.73
2017-08-30T18:03:21.147Z,30.30
2017-08-30T18:05:50.138Z,29.03
2017-08-30T18:08:19.236Z,33.10
2017-08-30T18:10:48.214Z,29.30
2017-08-30T18:13:17.205Z,31.57
2017-08-30T18:15:46.170Z,31.20
2017-08-30T18:18:15.275Z,31.13
2017-08-30T18:20:44.232Z,31.00
2017-08-30T18:23:13.283Z,29.90
2017-08-30T18:25:42.536Z,31.70
2017-08-30T18:28:11.532Z,31.80
2017-08-30T18:30:40.489Z,31.70
2017-08-30T18:33:09.470Z,30.43
2017-08-30T18:35:38.445Z,32.87
2017-08-30T18:38:07.429Z,30.23
2017-08-30T18:40:36.394Z,28.20
2017-08-30T18:43:05.406Z,29.37
2017-08-30T18:45:34.466Z,29.00
2017-08-30T18:48:03.484Z,27.43
2017-08-30T18:50:32.440Z,29.20
2017-08-30T18:53:01.403Z,26.90
2017-08-30T18:55:31.171Z,28.63
2017-08-30T18:58:00.148Z,28.00
2017-08-30T19:00:29.154Z,28.47
2017-08-30T19:02:58.148Z,29.57
2017-08-30T19:05:27.168Z,27.83
2017-08-30T19:07:56.185Z,29.37
2017-08-30T19:10:25.170Z,28.30
2017-08-30T19:12:54.156Z,32.70
2017-08-30T19:15:23.210Z,30.13
2017-08-30T19:17:52.235Z,33.83
2017-08-30T19:20:21.225Z,36.40
2017-08-30T19:22:50.208Z,33.57
2017-08-30T19:25:19.206Z,36.00
2017-08-30T19:27:48.943Z,32.00
2017-08-30T19:30:17.980Z,33.87
2017-08-30T19:32:46.941Z,32.87
2017-08-30T19:35:15.942Z,34.87
2017-08-30T19:37:44.991Z,36.13
2017-08-30T19:40:13.992Z,35.20
2017-08-30T19:42:43.876Z,34.73
2017-08-30T19:45:12.871Z,35.00
2017-08-30T19:47:41.885Z,34.47
2017-08-30T19:50:11.646Z,34.80
2017-08-30T19:52:40.705Z,34.00
2017-08-30T19:55:09.674Z,34.50
2017-08-30T19:57:38.664Z,38.23
2017-08-30T20:00:07.655Z,37.10
2017-08-30T20:02:36.626Z,37.00
2017-08-30T20:05:05.637Z,37.70
2017-08-30T20:07:34.646Z,34.63
2017-08-30T20:10:04.392Z,34.73
2017-08-30T20:12:33.381Z,33.37
2017-08-30T20:15:02.366Z,35.40
2017-08-30T20:17:31.329Z,35.10
2017-08-30T20:20:00.369Z,35.00
2017-08-30T20:22:29.375Z,34.23
2017-08-30T20:24:58.365Z,37.50
2017-08-30T20:27:27.342Z,38.93
2017-08-30T20:29:56.368Z,37.63
2017-08-30T20:32:25.373Z,36.90
2017-08-30T20:34:55.113Z,36.67
2017-08-30T20:37:24.097Z,36.80
2017-08-30T20:39:53.110Z,36.07
2017-08-30T20:42:22.418Z,37.43
2017-08-30T20:44:51.418Z,38.23
2017-08-30T20:47:20.396Z,38.43
2017-08-30T20:49:49.405Z,38.53
2017-08-30T20:52:18.401Z,41.13
2017-08-30T20:54:47.395Z,37.80
2017-08-30T20:57:16.386Z,37.20
2017-08-30T20:59:45.380Z,38.40
2017-08-30T21:02:14.398Z,35.53
2017-08-30T21:04:43.358Z,37.03
2017-08-30T21:07:12.350Z,38.03
2017-08-30T21:09:41.332Z,37.67
2017-08-30T21:12:10.332Z,36.27
2017-08-30T21:14:39.283Z,38.57
2017-08-30T21:17:08.297Z,40.07
2017-08-30T21:19:37.264Z,39.50
2017-08-30T21:22:07.017Z,39.97
2017-08-30T21:24:36.002Z,42.30
2017-08-30T21:27:05.020Z,42.43
2017-08-30T21:29:34.021Z,42.70
2017-08-30T21:32:03.010Z,42.03
2017-08-30T21:34:31.996Z,44.20
2017-08-30T21:37:00.960Z,44.00
2017-08-30T21:39:29.933Z,46.10
2017-08-30T21:41:58.908Z,43.43
2017-08-30T21:44:27.914Z,43.87
2017-08-30T21:46:57.113Z,46.40
2017-08-30T21:49:26.088Z,45.80
2017-08-30T21:51:55.057Z,43.67
2017-08-30T21:54:24.058Z,44.23
2017-08-30T21:56:53.019Z,50.17
2017-08-30T21:59:22.133Z,46.70
2017-08-30T22:01:51.205Z,50.60
2017-08-30T22:04:20.594Z,47.43
2017-08-30T22:06:49.567Z,52.20
2017-08-30T22:09:18.525Z,47.87
2017-08-30T22:11:47.521Z,50.30
2017-08-30T22:14:16.653Z,49.77
2017-08-30T22:16:45.633Z,48.30
2017-08-30T22:19:15.362Z,49.10
2017-08-30T22:21:44.361Z,52.30
2017-08-30T22:24:13.323Z,55.60
2017-08-30T22:26:42.294Z,54.93
2017-08-30T22:29:12.359Z,52.77
2017-08-30T22:31:41.333Z,54.30
2017-08-30T22:34:10.332Z,56.30
2017-08-30T22:36:39.298Z,55.30
2017-08-30T22:39:08.276Z,54.10
2017-08-30T22:41:37.255Z,59.50
2017-08-30T22:44:06.237Z,57.10
2017-08-30T22:46:35.231Z,61.20
2017-08-30T22:49:04.239Z,61.80
2017-08-30T22:51:33.199Z,57.63
2017-08-30T22:54:02.184Z,62.80
2017-08-30T22:56:31.182Z,60.60
2017-08-30T22:59:00.196Z,61.97
2017-08-30T23:01:29.180Z,60.40
2017-08-30T23:03:58.199Z,58.33
2017-08-30T23:06:27.241Z,55.30
2017-08-30T23:08:56.235Z,56.73
2017-08-30T23:11:25.199Z,57.37
2017-08-30T23:13:54.210Z,55.77
2017-08-30T23:16:23.168Z,60.47
2017-08-30T23:18:52.170Z,57.57
2017-08-30T23:21:21.128Z,58.23
2017-08-30T23:23:50.106Z,56.07
2017-08-30T23:26:19.568Z,56.73
2017-08-30T23:28:49.321Z,53.03
2017-08-30T23:31:18.287Z,53.70
2017-08-30T23:33:47.286Z,51.03
2017-08-30T23:36:16.245Z,48.43
2017-08-30T23:38:46.016Z,48.70
2017-08-30T23:41:14.990Z,43.03
2017-08-30T23:43:43.975Z,35.20
2017-08-30T23:46:12.930Z,30.07
2017-08-30T23:48:42.782Z,27.43
2017-08-30T23:51:11.735Z,28.20
2017-08-30T23:53:41.480Z,24.83
2017-08-30T23:56:10.449Z,24.10
2017-08-30T23:58:39.530Z,24.23
